createdAt,value
2022-08-28T00:02:33.885Z,27.00
2022-08-28T00:05:29.736Z,27.00
2022-08-28T00:08:23.167Z,27.00
2022-08-28T00:11:16.243Z,27.00
2022-08-28T00:14:11.935Z,27.00
2022-08-28T00:17:05.312Z,27.00
2022-08-28T00:19:58.005Z,27.00
2022-08-28T00:22:52.070Z,27.00
2022-08-28T00:25:45.311Z,27.00
2022-08-28T00:28:37.166Z,27.00
2022-08-28T00:31:31.967Z,27.00
2022-08-28T00:34:32.869Z,27.00
2022-08-28T00:37:25.948Z,27.00
2022-08-28T00:40:30.626Z,27.00
2022-08-28T00:43:35.438Z,27.00
2022-08-28T00:46:29.164Z,27.00
2022-08-28T00:49:25.953Z,27.00
2022-08-28T00:52:20.191Z,27.00
2022-08-28T00:55:16.731Z,27.00
2022-08-28T00:58:12.064Z,27.00
2022-08-28T01:01:06.457Z,27.00
2022-08-28T01:04:00.709Z,27.00
2022-08-28T01:06:57.481Z,27.00
2022-08-28T01:09:54.676Z,27.00
2022-08-28T01:12:50.032Z,27.00
2022-08-28T01:15:45.098Z,27.00
2022-08-28T01:18:39.263Z,27.00
2022-08-28T01:21:40.152Z,27.00
2022-08-28T01:24:36.834Z,27.00
2022-08-28T01:27:30.436Z,27.00
2022-08-28T01:30:25.858Z,27.00
2022-08-28T01:33:19.459Z,27.00
2022-08-28T01:36:22.298Z,27.00
2022-08-28T01:39:19.016Z,27.00
2022-08-28T01:42:14.007Z,27.00
2022-08-28T01:45:10.960Z,27.00
2022-08-28T01:48:05.581Z,27.00
2022-08-28T01:50:59.081Z,27.00
2022-08-28T01:53:53.989Z,26.90
2022-08-28T01:56:47.542Z,26.90
2022-08-28T01:59:42.832Z,26.90
2022-08-28T02:02:36.900Z,26.90
2022-08-28T02:05:33.945Z,26.90
2022-08-28T02:08:27.310Z,26.90
2022-08-28T02:11:21.411Z,26.90
2022-08-28T02:14:14.303Z,26.90
2022-08-28T02:17:08.594Z,26.90
2022-08-28T02:20:01.986Z,26.80
2022-08-28T02:22:55.689Z,26.80
2022-08-28T02:25:49.824Z,26.80
2022-08-28T02:28:44.294Z,26.80
2022-08-28T02:31:37.176Z,26.80
2022-08-28T02:34:31.777Z,26.80
2022-08-28T02:37:25.770Z,26.80
2022-08-28T02:40:22.562Z,26.80
2022-08-28T02:43:16.234Z,26.70
2022-08-28T02:46:10.256Z,26.70
2022-08-28T02:49:03.479Z,26.70
2022-08-28T02:51:57.983Z,26.70
2022-08-28T02:54:51.577Z,26.70
2022-08-28T02:57:46.122Z,26.70
2022-08-28T03:00:40.008Z,26.70
2022-08-28T03:03:33.968Z,26.70
2022-08-28T03:06:28.296Z,26.70
2022-08-28T03:09:23.102Z,26.70
2022-08-28T03:12:17.005Z,26.70
2022-08-28T03:15:10.928Z,26.60
2022-08-28T03:18:07.936Z,26.60
2022-08-28T03:21:04.482Z,26.60
2022-08-28T03:23:57.420Z,26.60
2022-08-28T03:26:51.994Z,26.60
2022-08-28T03:29:45.319Z,26.60
2022-08-28T03:32:38.497Z,26.60
2022-08-28T03:35:32.721Z,26.60
2022-08-28T03:38:26.861Z,26.60
2022-08-28T03:41:23.072Z,26.60
2022-08-28T03:44:17.617Z,26.60
2022-08-28T03:47:12.199Z,26.60
2022-08-28T03:50:09.977Z,26.60
2022-08-28T03:53:04.085Z,26.50
2022-08-28T03:55:58.181Z,26.50
2022-08-28T03:58:53.940Z,26.50
2022-08-28T04:01:48.678Z,26.50
2022-08-28T04:04:42.288Z,26.50
2022-08-28T04:07:35.865Z,26.50
2022-08-28T04:10:29.354Z,26.50
2022-08-28T04:13:24.163Z,26.50
2022-08-28T04:16:18.972Z,26.50
2022-08-28T04:19:14.905Z,26.50
2022-08-28T04:22:09.285Z,26.50
2022-08-28T04:25:02.669Z,26.50
2022-08-28T04:27:56.293Z,26.40
2022-08-28T04:30:52.246Z,26.40
2022-08-28T04:33:46.637Z,26.40
2022-08-28T04:36:41.866Z,26.40
2022-08-28T04:39:35.270Z,26.40
2022-08-28T04:42:28.666Z,26.40
2022-08-28T04:45:22.424Z,26.40
2022-08-28T04:48:16.042Z,26.40
2022-08-28T04:51:11.926Z,26.40
2022-08-28T04:54:07.765Z,26.40
2022-08-28T04:57:01.695Z,26.40
2022-08-28T04:59:55.057Z,26.40
2022-08-28T05:02:48.435Z,26.30
2022-08-28T05:05:44.694Z,26.30
2022-08-28T05:08:38.284Z,26.30
2022-08-28T05:11:35.114Z,26.30
2022-08-28T05:14:28.048Z,26.30
2022-08-28T05:17:20.962Z,26.30
2022-08-28T05:20:14.159Z,26.30
2022-08-28T05:23:09.487Z,26.30
2022-08-28T05:26:02.304Z,26.30
2022-08-28T05:28:57.242Z,26.30
2022-08-28T05:31:50.151Z,26.30
2022-08-28T05:34:43.580Z,26.30
2022-08-28T05:37:36.534Z,26.20
2022-08-28T05:40:30.698Z,26.30
2022-08-28T05:43:25.543Z,26.20
2022-08-28T05:46:20.626Z,26.20
2022-08-28T05:49:14.990Z,26.20
2022-08-28T05:52:08.836Z,26.20
2022-08-28T05:55:02.414Z,26.20
2022-08-28T05:58:15.529Z,26.20
2022-08-28T06:01:11.987Z,26.20
2022-08-28T06:04:09.897Z,26.20
2022-08-28T06:07:04.132Z,26.20
2022-08-28T06:09:57.376Z,26.20
2022-08-28T06:12:50.325Z,26.20
2022-08-28T06:15:43.489Z,26.10
2022-08-28T06:18:36.015Z,26.20
2022-08-28T06:21:30.857Z,26.10
2022-08-28T06:24:25.084Z,26.10
2022-08-28T06:27:18.886Z,26.10
2022-08-28T06:30:13.007Z,26.10
2022-08-28T06:33:07.724Z,26.10
2022-08-28T06:36:04.180Z,26.10
2022-08-28T06:39:00.450Z,26.10
2022-08-28T06:41:53.626Z,26.10
2022-08-28T06:44:46.996Z,26.10
2022-08-28T06:47:40.130Z,26.10
2022-08-28T06:50:33.707Z,26.10
2022-08-28T06:53:29.353Z,26.10
2022-08-28T06:56:25.774Z,26.10
2022-08-28T06:59:20.431Z,26.10
2022-08-28T07:02:13.448Z,26.10
2022-08-28T07:05:08.497Z,26.10
2022-08-28T07:08:01.656Z,26.20
2022-08-28T07:10:55.131Z,26.20
2022-08-28T07:13:50.401Z,26.10
2022-08-28T07:16:44.456Z,26.10
2022-08-28T07:19:37.283Z,26.10
2022-08-28T07:22:31.136Z,26.20
2022-08-28T07:25:24.906Z,26.20
2022-08-28T07:28:18.634Z,26.10
2022-08-28T07:31:15.467Z,26.10
2022-08-28T07:34:09.413Z,26.20
2022-08-28T07:37:04.328Z,26.20
2022-08-28T07:39:57.549Z,26.20
2022-08-28T07:43:08.617Z,26.20
2022-08-28T07:46:01.850Z,26.20
2022-08-28T07:48:58.819Z,26.20
2022-08-28T07:51:54.164Z,26.20
2022-08-28T07:54:49.389Z,26.20
2022-08-28T07:57:43.181Z,26.20
2022-08-28T08:00:36.531Z,26.20
2022-08-28T08:03:31.861Z,26.20
2022-08-28T08:06:33.058Z,26.20
2022-08-28T08:09:28.676Z,26.20
2022-08-28T08:12:22.119Z,26.20
2022-08-28T08:15:15.653Z,26.20
2022-08-28T08:18:08.692Z,26.30
2022-08-28T08:21:01.678Z,26.20
2022-08-28T08:23:56.087Z,26.20
2022-08-28T08:26:58.834Z,26.20
2022-08-28T08:29:53.497Z,26.30
2022-08-28T08:32:46.635Z,26.30
2022-08-28T08:35:39.950Z,26.30
2022-08-28T08:38:35.370Z,26.30
2022-08-28T08:41:34.125Z,26.30
2022-08-28T08:44:34.014Z,26.30
2022-08-28T08:47:36.548Z,26.30
2022-08-28T08:50:32.073Z,26.40
2022-08-28T08:53:32.753Z,26.40
2022-08-28T08:56:25.173Z,26.40
2022-08-28T08:59:34.941Z,26.40
2022-08-28T09:02:33.107Z,26.40
2022-08-28T09:05:38.708Z,26.40
2022-08-28T09:08:37.731Z,26.40
2022-08-28T09:11:51.044Z,26.40
2022-08-28T09:14:58.925Z,26.50
2022-08-28T09:17:56.023Z,26.50
2022-08-28T09:20:52.023Z,26.50
2022-08-28T09:23:45.784Z,26.50
2022-08-28T09:26:41.255Z,26.50
2022-08-28T09:29:40.088Z,26.60
2022-08-28T09:32:38.576Z,26.60
2022-08-28T09:35:33.641Z,26.60
2022-08-28T09:38:27.820Z,26.60
2022-08-28T09:41:38.817Z,26.60
2022-08-28T09:44:32.282Z,26.60
2022-08-28T09:47:48.875Z,26.60
2022-08-28T09:50:43.353Z,26.60
2022-08-28T09:53:38.947Z,26.70
2022-08-28T09:56:35.107Z,26.70
2022-08-28T09:59:30.266Z,26.70
2022-08-28T10:02:40.978Z,26.80
2022-08-28T10:05:48.076Z,26.70
2022-08-28T10:09:08.782Z,26.80
2022-08-28T10:12:11.104Z,26.70
2022-08-28T10:15:13.411Z,26.70
2022-08-28T10:18:21.342Z,26.80
2022-08-28T10:21:21.281Z,26.70
2022-08-28T10:24:35.943Z,26.70
2022-08-28T10:27:44.057Z,26.70
2022-08-28T10:30:43.880Z,26.80
2022-08-28T10:33:51.580Z,26.80
2022-08-28T10:36:54.098Z,26.80
2022-08-28T10:39:54.901Z,26.90
2022-08-28T10:42:56.921Z,26.90
2022-08-28T10:45:51.788Z,26.90
2022-08-28T10:48:48.798Z,26.90
2022-08-28T10:51:48.238Z,26.90
2022-08-28T10:54:47.023Z,26.90
2022-08-28T10:57:45.220Z,26.90
2022-08-28T11:00:41.008Z,27.00
2022-08-28T11:03:41.639Z,27.00
2022-08-28T11:06:39.070Z,27.00
2022-08-28T11:09:36.805Z,27.00
2022-08-28T11:12:38.404Z,27.00
2022-08-28T11:15:53.573Z,27.00
2022-08-28T11:19:20.495Z,27.00
2022-08-28T11:22:18.294Z,27.00
2022-08-28T11:25:17.542Z,27.00
2022-08-28T11:28:17.569Z,27.00
2022-08-28T11:31:37.586Z,27.00
2022-08-28T11:34:59.196Z,27.00
2022-08-28T11:37:54.983Z,27.00
2022-08-28T11:40:57.941Z,27.00
2022-08-28T11:43:53.343Z,27.00
2022-08-28T11:46:48.658Z,27.00
2022-08-28T11:49:46.139Z,27.00
2022-08-28T11:52:54.006Z,27.00
2022-08-28T11:56:00.990Z,27.00
2022-08-28T11:59:00.509Z,27.10
2022-08-28T12:02:39.054Z,27.10
2022-08-28T12:05:53.489Z,27.10
2022-08-28T12:09:12.709Z,27.10
2022-08-28T12:12:22.838Z,27.10
2022-08-28T12:15:42.905Z,27.10
2022-08-28T12:19:03.995Z,27.10
2022-08-28T12:21:58.711Z,27.10
2022-08-28T12:24:58.750Z,27.10
2022-08-28T12:27:53.806Z,27.10
2022-08-28T12:30:55.897Z,27.10
2022-08-28T12:33:57.021Z,27.10
2022-08-28T12:37:00.053Z,27.00
2022-08-28T12:39:55.067Z,27.00
2022-08-28T12:42:55.605Z,27.10
2022-08-28T12:45:52.091Z,27.00
2022-08-28T12:48:52.553Z,27.10
2022-08-28T12:51:46.106Z,27.00
2022-08-28T12:54:39.796Z,27.00
2022-08-28T12:57:33.780Z,27.00
2022-08-28T13:00:34.778Z,27.00
2022-08-28T13:03:29.572Z,27.00
2022-08-28T13:06:25.991Z,27.00
2022-08-28T13:09:26.809Z,27.00
2022-08-28T13:12:29.070Z,27.00
2022-08-28T13:15:55.389Z,27.00
2022-08-28T13:18:52.715Z,27.00
2022-08-28T13:21:58.828Z,27.00
2022-08-28T13:25:02.156Z,27.00
2022-08-28T13:28:00.671Z,26.90
2022-08-28T13:30:59.866Z,26.90
2022-08-28T13:34:05.727Z,26.90
2022-08-28T13:37:01.579Z,26.90
2022-08-28T13:39:55.296Z,26.90
2022-08-28T13:42:49.703Z,26.90
2022-08-28T13:45:44.944Z,26.90
2022-08-28T13:48:40.424Z,26.80
2022-08-28T13:51:35.180Z,26.80
2022-08-28T13:54:34.235Z,26.80
2022-08-28T13:57:29.180Z,26.80
2022-08-28T14:00:23.052Z,26.80
2022-08-28T14:03:34.159Z,26.80
2022-08-28T14:06:31.773Z,26.80
2022-08-28T14:09:27.134Z,26.80
2022-08-28T14:12:20.800Z,26.80
2022-08-28T14:15:14.146Z,26.80
2022-08-28T14:18:07.978Z,26.70
2022-08-28T14:21:01.190Z,26.70
2022-08-28T14:23:56.420Z,26.70
2022-08-28T14:26:50.072Z,26.70
2022-08-28T14:29:42.956Z,26.70
2022-08-28T14:32:37.414Z,26.70
2022-08-28T14:35:30.852Z,26.70
2022-08-28T14:38:24.004Z,26.70
2022-08-28T14:41:20.576Z,26.70
2022-08-28T14:44:14.522Z,26.70
2022-08-28T14:47:07.522Z,26.70
2022-08-28T14:50:00.818Z,26.70
2022-08-28T14:52:53.658Z,26.70
2022-08-28T14:55:50.185Z,26.70
2022-08-28T14:58:45.316Z,26.70
2022-08-28T15:01:41.323Z,26.70
2022-08-28T15:04:37.653Z,26.70
2022-08-28T15:07:31.088Z,26.60
2022-08-28T15:10:24.489Z,26.70
2022-08-28T15:13:17.778Z,26.70
2022-08-28T15:16:18.401Z,26.60
2022-08-28T15:19:13.197Z,26.70
2022-08-28T15:22:07.071Z,26.60
2022-08-28T15:24:59.921Z,26.60
2022-08-28T15:27:53.130Z,26.60
2022-08-28T15:30:47.988Z,26.60
2022-08-28T15:33:45.342Z,26.60
2022-08-28T15:36:40.414Z,26.60
2022-08-28T15:39:51.707Z,26.60
2022-08-28T15:42:45.720Z,26.60
2022-08-28T15:45:39.486Z,26.60
2022-08-28T15:48:33.677Z,26.60
2022-08-28T15:51:29.530Z,26.60
2022-08-28T15:54:24.349Z,26.60
2022-08-28T15:57:17.797Z,26.60
2022-08-28T16:00:12.617Z,26.60
2022-08-28T16:03:05.947Z,26.60
2022-08-28T16:05:59.836Z,26.60
2022-08-28T16:08:54.382Z,26.60
2022-08-28T16:11:48.084Z,26.60
2022-08-28T16:14:40.568Z,26.60
2022-08-28T16:17:33.919Z,26.60
2022-08-28T16:20:27.240Z,26.60
2022-08-28T16:23:21.134Z,26.60
2022-08-28T16:26:15.866Z,26.60
2022-08-28T16:29:08.923Z,26.60
2022-08-28T16:32:02.920Z,26.60
2022-08-28T16:34:58.742Z,26.60
2022-08-28T16:37:52.102Z,26.60
2022-08-28T16:40:46.603Z,26.60
2022-08-28T16:43:41.368Z,26.60
2022-08-28T16:46:35.490Z,26.60
2022-08-28T16:49:29.304Z,26.60
2022-08-28T16:52:23.852Z,26.60
2022-08-28T16:55:17.442Z,26.60
2022-08-28T16:58:14.974Z,26.60
2022-08-28T17:01:13.231Z,26.60
2022-08-28T17:04:07.206Z,26.60
2022-08-28T17:07:00.179Z,26.60
2022-08-28T17:09:53.125Z,26.60
2022-08-28T17:12:45.801Z,26.60
2022-08-28T17:15:39.170Z,26.60
2022-08-28T17:18:33.842Z,26.60
2022-08-28T17:21:55.828Z,26.60
2022-08-28T17:24:49.754Z,26.60
2022-08-28T17:27:46.418Z,26.60
2022-08-28T17:30:39.893Z,26.60
2022-08-28T17:33:34.508Z,26.60
2022-08-28T17:36:33.230Z,26.60
2022-08-28T17:39:27.919Z,26.60
2022-08-28T17:42:21.097Z,26.60
2022-08-28T17:45:14.777Z,26.60
2022-08-28T17:48:08.267Z,26.60
2022-08-28T17:51:03.651Z,26.60
2022-08-28T17:53:57.177Z,26.60
2022-08-28T17:56:50.025Z,26.60
2022-08-28T17:59:43.126Z,26.60
2022-08-28T18:02:36.150Z,26.60
2022-08-28T18:05:29.406Z,26.60
2022-08-28T18:08:24.521Z,26.50
2022-08-28T18:11:18.851Z,26.60
2022-08-28T18:14:12.053Z,26.60
2022-08-28T18:17:05.497Z,26.60
2022-08-28T18:20:01.969Z,26.50
2022-08-28T18:22:55.658Z,26.60
2022-08-28T18:25:51.706Z,26.50
2022-08-28T18:28:45.023Z,26.60
2022-08-28T18:31:38.357Z,26.50
2022-08-28T18:34:31.939Z,26.50
2022-08-28T18:37:25.264Z,26.50
2022-08-28T18:40:19.113Z,26.50
2022-08-28T18:43:14.132Z,26.50
2022-08-28T18:46:09.181Z,26.50
2022-08-28T18:49:02.297Z,26.50
2022-08-28T18:51:56.639Z,26.50
2022-08-28T18:54:50.065Z,26.50
2022-08-28T18:57:44.218Z,26.50
2022-08-28T19:00:41.905Z,26.50
2022-08-28T19:03:34.865Z,26.50
2022-08-28T19:06:28.272Z,26.50
2022-08-28T19:09:20.972Z,26.50
2022-08-28T19:12:14.262Z,26.50
2022-08-28T19:15:08.249Z,26.50
2022-08-28T19:18:02.755Z,26.50
2022-08-28T19:21:04.875Z,26.50
2022-08-28T19:23:58.367Z,26.50
2022-08-28T19:26:52.107Z,26.50
2022-08-28T19:29:45.400Z,26.50
2022-08-28T19:32:39.036Z,26.50
2022-08-28T19:35:34.641Z,26.50
2022-08-28T19:38:28.824Z,26.50
2022-08-28T19:41:24.333Z,26.50
2022-08-28T19:44:17.001Z,26.50
2022-08-28T19:47:10.446Z,26.50
2022-08-28T19:50:04.576Z,26.50
2022-08-28T19:52:59.772Z,26.50
2022-08-28T19:55:53.297Z,26.50
2022-08-28T19:58:46.204Z,26.50
2022-08-28T20:01:43.445Z,26.50
2022-08-28T20:04:38.182Z,26.50
2022-08-28T20:07:31.007Z,26.50
2022-08-28T20:10:25.624Z,26.50
2022-08-28T20:13:19.391Z,26.50
2022-08-28T20:16:13.519Z,26.50
2022-08-28T20:19:10.264Z,26.50
2022-08-28T20:22:03.819Z,26.50
2022-08-28T20:24:57.075Z,26.50
2022-08-28T20:27:51.530Z,26.50
2022-08-28T20:30:45.217Z,26.50
2022-08-28T20:33:39.559Z,26.50
2022-08-28T20:36:33.148Z,26.50
2022-08-28T20:39:26.308Z,26.50
2022-08-28T20:42:19.380Z,26.50
2022-08-28T20:45:15.101Z,26.50
2022-08-28T20:48:07.969Z,26.50
2022-08-28T20:51:01.629Z,26.50
2022-08-28T20:53:54.909Z,26.50
2022-08-28T20:56:48.530Z,26.50
2022-08-28T20:59:43.395Z,26.50
2022-08-28T21:02:38.418Z,26.50
2022-08-28T21:05:32.164Z,26.50
2022-08-28T21:08:25.996Z,26.50
2022-08-28T21:11:19.036Z,26.50
2022-08-28T21:14:12.803Z,26.40
2022-08-28T21:17:06.496Z,26.40
2022-08-28T21:20:06.101Z,26.50
2022-08-28T21:22:59.893Z,26.50
2022-08-28T21:25:53.217Z,26.40
2022-08-28T21:28:46.284Z,26.40
2022-08-28T21:31:43.157Z,26.40
2022-08-28T21:34:36.246Z,26.40
2022-08-28T21:37:31.233Z,26.40
2022-08-28T21:40:24.339Z,26.40
2022-08-28T21:43:17.459Z,26.40
2022-08-28T21:46:13.829Z,26.40
2022-08-28T21:49:07.679Z,26.40
2022-08-28T21:52:01.706Z,26.40
2022-08-28T21:54:59.293Z,26.40
2022-08-28T21:57:52.346Z,26.40
2022-08-28T22:00:48.277Z,26.40
2022-08-28T22:03:42.394Z,26.40
2022-08-28T22:06:35.793Z,26.40
2022-08-28T22:09:30.010Z,26.40
2022-08-28T22:12:24.840Z,26.40
2022-08-28T22:15:18.279Z,26.40
2022-08-28T22:18:12.935Z,26.40
2022-08-28T22:21:24.251Z,26.40
2022-08-28T22:24:17.714Z,26.40
2022-08-28T22:27:13.407Z,26.40
2022-08-28T22:30:09.005Z,26.40
2022-08-28T22:33:03.369Z,26.40
2022-08-28T22:35:56.376Z,26.40
2022-08-28T22:38:53.344Z,26.40
2022-08-28T22:41:47.421Z,26.40
2022-08-28T22:44:41.039Z,26.40
2022-08-28T22:47:36.383Z,26.40
2022-08-28T22:50:29.215Z,26.40
2022-08-28T22:53:22.524Z,26.40
2022-08-28T22:56:16.954Z,26.40
2022-08-28T22:59:10.563Z,26.40
2022-08-28T23:02:05.162Z,26.40
2022-08-28T23:04:59.931Z,26.40
2022-08-28T23:07:53.841Z,26.40
2022-08-28T23:10:59.137Z,26.30
2022-08-28T23:13:52.872Z,26.40
2022-08-28T23:16:46.896Z,26.30
2022-08-28T23:19:42.340Z,26.40
2022-08-28T23:22:37.399Z,26.40
2022-08-28T23:25:29.934Z,26.30
2022-08-28T23:28:23.100Z,26.40
2022-08-28T23:31:16.008Z,26.40
2022-08-28T23:34:14.428Z,26.40
2022-08-28T23:37:07.224Z,26.30
2022-08-28T23:40:01.916Z,26.30
2022-08-28T23:42:56.134Z,26.30
2022-08-28T23:45:49.650Z,26.30
2022-08-28T23:48:43.359Z,26.30
2022-08-28T23:51:38.660Z,26.30
2022-08-28T23:54:32.255Z,26.30
2022-08-28T23:57:26.633Z,26.30
